createdAt,value
2018-02-13T00:01:26.134Z,10.63
2018-02-13T00:03:53.784Z,9.23
2018-02-13T00:06:21.500Z,8.82
2018-02-13T00:08:49.155Z,8.80
2018-02-13T00:11:17.570Z,8.75
2018-02-13T00:13:45.249Z,9.55
2018-02-13T00:16:12.910Z,10.25
2018-02-13T00:18:40.577Z,9.15
2018-02-13T00:21:08.255Z,11.82
2018-02-13T00:23:35.917Z,11.80
2018-02-13T00:26:03.581Z,10.73
2018-02-13T00:28:31.266Z,10.90
2018-02-13T00:30:58.910Z,13.57
2018-02-13T00:33:26.849Z,11.98
2018-02-13T00:35:54.533Z,10.80
2018-02-13T00:38:22.189Z,11.05
2018-02-13T00:40:49.849Z,10.43
2018-02-13T00:43:17.518Z,10.00
2018-02-13T00:45:45.167Z,9.82
2018-02-13T00:48:12.852Z,11.10
2018-02-13T00:50:40.495Z,11.55
2018-02-13T00:53:08.146Z,10.82
2018-02-13T00:55:35.809Z,10.98
2018-02-13T00:58:03.494Z,11.35
2018-02-13T01:00:31.134Z,12.00
2018-02-13T01:02:58.767Z,11.73
2018-02-13T01:05:26.444Z,11.95
2018-02-13T01:07:54.093Z,12.10
2018-02-13T01:10:21.737Z,11.73
2018-02-13T01:12:49.401Z,10.63
2018-02-13T01:15:17.073Z,11.43
2018-02-13T01:17:44.708Z,11.50
2018-02-13T01:20:12.429Z,10.25
2018-02-13T01:22:40.064Z,9.57
2018-02-13T01:25:07.713Z,9.80
2018-02-13T01:27:35.400Z,9.13
2018-02-13T01:30:03.062Z,9.50
2018-02-13T01:32:30.699Z,9.93
2018-02-13T01:34:58.363Z,9.48
2018-02-13T01:37:25.995Z,9.30
2018-02-13T01:39:53.668Z,8.60
2018-02-13T01:42:21.301Z,9.50
2018-02-13T01:44:48.949Z,10.27
2018-02-13T01:47:16.607Z,10.60
2018-02-13T01:49:44.254Z,10.23
2018-02-13T01:52:11.915Z,10.10
2018-02-13T01:54:39.615Z,11.27
2018-02-13T01:57:08.082Z,11.20
2018-02-13T01:59:35.748Z,10.25
2018-02-13T02:02:03.425Z,15.05
2018-02-13T02:04:31.090Z,14.82
2018-02-13T02:06:59.510Z,16.20
2018-02-13T02:09:27.209Z,13.68
2018-02-13T02:11:54.849Z,14.75
2018-02-13T02:14:22.483Z,13.62
2018-02-13T02:16:54.693Z,13.73
2018-02-13T02:19:22.333Z,10.88
2018-02-13T02:21:50.009Z,11.82
2018-02-13T02:24:17.652Z,13.60
2018-02-13T02:26:45.309Z,11.02
2018-02-13T02:29:12.948Z,10.88
2018-02-13T02:31:40.628Z,11.82
2018-02-13T02:34:08.274Z,11.25
2018-02-13T02:36:36.681Z,8.90
2018-02-13T02:39:04.333Z,10.00
2018-02-13T02:41:31.996Z,8.57
2018-02-13T02:43:59.668Z,9.98
2018-02-13T02:46:27.318Z,9.27
2018-02-13T02:48:54.953Z,9.35
2018-02-13T02:51:23.407Z,10.43
2018-02-13T02:53:51.073Z,9.30
2018-02-13T02:56:18.734Z,9.20
2018-02-13T02:58:47.502Z,9.70
2018-02-13T03:01:15.166Z,9.40
2018-02-13T03:03:42.819Z,8.50
2018-02-13T03:06:10.485Z,8.18
2018-02-13T03:08:38.108Z,9.23
2018-02-13T03:11:05.767Z,8.35
2018-02-13T03:13:33.400Z,8.52
2018-02-13T03:16:01.073Z,9.38
2018-02-13T03:18:29.481Z,8.50
2018-02-13T03:20:57.143Z,10.30
2018-02-13T03:23:24.783Z,8.57
2018-02-13T03:25:53.202Z,8.88
2018-02-13T03:28:20.881Z,10.00
2018-02-13T03:30:49.517Z,10.73
2018-02-13T03:33:17.226Z,9.77
2018-02-13T03:35:44.886Z,9.10
2018-02-13T03:38:12.533Z,8.63
2018-02-13T03:40:40.188Z,8.30
2018-02-13T03:43:07.829Z,9.88
2018-02-13T03:45:35.553Z,8.35
2018-02-13T03:48:03.211Z,8.55
2018-02-13T03:50:30.846Z,8.77
2018-02-13T03:52:58.513Z,7.78
2018-02-13T03:55:26.147Z,9.30
2018-02-13T03:57:53.780Z,8.35
2018-02-13T04:00:22.202Z,7.30
2018-02-13T04:02:49.882Z,7.78
2018-02-13T04:05:17.547Z,8.25
2018-02-13T04:07:45.175Z,8.00
2018-02-13T04:10:12.841Z,8.05
2018-02-13T04:12:40.481Z,7.65
2018-02-13T04:15:09.607Z,7.40
2018-02-13T04:17:37.287Z,8.23
2018-02-13T04:20:04.914Z,7.55
2018-02-13T04:22:32.581Z,8.00
2018-02-13T04:25:00.207Z,7.82
2018-02-13T04:27:27.878Z,8.13
2018-02-13T04:29:56.293Z,7.45
2018-02-13T04:32:23.934Z,6.90
2018-02-13T04:34:51.714Z,8.88
2018-02-13T04:37:19.369Z,8.13
2018-02-13T04:39:47.041Z,7.78
2018-02-13T04:42:14.691Z,8.23
2018-02-13T04:44:42.321Z,7.80
2018-02-13T04:47:09.991Z,8.38
2018-02-13T04:49:38.422Z,7.50
2018-02-13T04:52:06.076Z,7.95
2018-02-13T04:54:33.742Z,8.00
2018-02-13T04:57:01.424Z,7.62
2018-02-13T04:59:29.047Z,7.80
2018-02-13T05:01:56.688Z,6.87
2018-02-13T05:04:25.122Z,8.70
2018-02-13T05:06:52.783Z,8.15
2018-02-13T05:09:20.473Z,8.80
2018-02-13T05:11:48.121Z,7.60
2018-02-13T05:14:15.757Z,8.80
2018-02-13T05:16:43.527Z,8.48
2018-02-13T05:19:11.151Z,7.82
2018-02-13T05:21:38.787Z,12.88
2018-02-13T05:24:07.215Z,9.32
2018-02-13T05:26:34.880Z,8.98
2018-02-13T05:29:02.538Z,8.63
2018-02-13T05:31:30.186Z,9.30
2018-02-13T05:33:57.855Z,8.55
2018-02-13T05:36:25.504Z,10.30
2018-02-13T05:38:53.145Z,9.27
2018-02-13T05:41:21.586Z,9.35
2018-02-13T05:43:49.242Z,9.40
2018-02-13T05:46:16.898Z,7.60
2018-02-13T05:48:44.551Z,8.30
2018-02-13T05:51:12.231Z,8.60
2018-02-13T05:53:39.884Z,8.02
2018-02-13T05:56:07.521Z,7.93
2018-02-13T05:58:35.196Z,9.00
2018-02-13T06:01:02.845Z,10.02
2018-02-13T06:03:30.523Z,9.55
2018-02-13T06:05:58.198Z,8.02
2018-02-13T06:08:25.893Z,9.85
2018-02-13T06:10:53.555Z,10.18
2018-02-13T06:13:21.198Z,14.43
2018-02-13T06:15:48.867Z,8.88
2018-02-13T06:18:16.510Z,8.68
2018-02-13T06:20:44.173Z,8.48
2018-02-13T06:23:11.828Z,9.48
2018-02-13T06:25:39.516Z,9.25
2018-02-13T06:28:07.179Z,10.38
2018-02-13T06:30:34.834Z,9.80
2018-02-13T06:33:02.510Z,9.32
2018-02-13T06:35:30.169Z,10.00
2018-02-13T06:37:57.838Z,11.10
2018-02-13T06:40:25.486Z,9.40
2018-02-13T06:42:53.170Z,9.95
2018-02-13T06:45:21.559Z,9.68
2018-02-13T06:47:49.959Z,9.38
2018-02-13T06:50:17.630Z,9.07
2018-02-13T06:52:45.273Z,9.32
2018-02-13T06:55:12.979Z,9.95
2018-02-13T06:57:40.665Z,9.52
2018-02-13T07:00:08.345Z,11.05
2018-02-13T07:02:36.761Z,15.40
2018-02-13T07:05:04.433Z,13.85
2018-02-13T07:07:32.087Z,14.50
2018-02-13T07:09:59.731Z,11.35
2018-02-13T07:12:27.393Z,11.55
2018-02-13T07:14:55.023Z,11.43
2018-02-13T07:17:22.720Z,12.80
2018-02-13T07:19:50.369Z,15.30
2018-02-13T07:22:18.024Z,11.32
2018-02-13T07:24:46.518Z,14.98
2018-02-13T07:27:14.199Z,13.88
2018-02-13T07:29:41.875Z,14.48
2018-02-13T07:32:09.530Z,12.93
2018-02-13T07:34:37.276Z,11.75
2018-02-13T07:37:04.998Z,13.43
2018-02-13T07:39:32.658Z,14.27
2018-02-13T07:42:01.109Z,12.70
2018-02-13T07:44:28.778Z,14.70
2018-02-13T07:46:56.516Z,16.83
2018-02-13T07:49:24.157Z,15.73
2018-02-13T07:51:51.804Z,14.48
2018-02-13T07:54:20.241Z,15.10
2018-02-13T07:56:47.896Z,14.23
2018-02-13T07:59:15.572Z,14.25
2018-02-13T08:01:43.245Z,15.07
2018-02-13T08:04:11.026Z,15.77
2018-02-13T08:06:38.668Z,15.95
2018-02-13T08:09:06.323Z,15.52
2018-02-13T08:11:34.027Z,15.18
2018-02-13T08:14:02.441Z,16.90
2018-02-13T08:16:30.121Z,14.93
2018-02-13T08:18:57.769Z,14.77
2018-02-13T08:21:25.421Z,17.42
2018-02-13T08:23:53.098Z,16.50
2018-02-13T08:26:20.862Z,14.52
2018-02-13T08:28:48.562Z,13.35
2018-02-13T08:31:17.001Z,13.23
2018-02-13T08:33:44.656Z,13.35
2018-02-13T08:36:12.328Z,12.88
2018-02-13T08:38:39.981Z,14.40
2018-02-13T08:41:07.662Z,14.02
2018-02-13T08:43:35.347Z,12.07
2018-02-13T08:46:03.006Z,13.38
2018-02-13T08:48:30.673Z,14.40
2018-02-13T08:50:58.317Z,13.67
2018-02-13T08:53:25.984Z,12.95
2018-02-13T08:55:53.634Z,13.10
2018-02-13T08:58:21.315Z,14.20
2018-02-13T09:00:48.969Z,12.87
2018-02-13T09:03:16.624Z,13.62
2018-02-13T09:05:44.300Z,15.53
2018-02-13T09:08:11.947Z,15.77
2018-02-13T09:10:39.615Z,13.33
2018-02-13T09:13:07.273Z,15.10
2018-02-13T09:15:34.949Z,15.63
2018-02-13T09:18:02.607Z,12.97
2018-02-13T09:23:04.317Z,13.07
2018-02-13T09:25:31.960Z,13.43
2018-02-13T09:28:00.379Z,11.57
2018-02-13T09:30:28.054Z,10.90
2018-02-13T09:32:55.742Z,10.97
2018-02-13T09:35:23.413Z,11.63
2018-02-13T09:37:51.059Z,10.90
2018-02-13T09:40:18.775Z,9.83
2018-02-13T09:42:46.422Z,10.50
2018-02-13T09:45:14.829Z,10.60
2018-02-13T09:47:42.480Z,8.23
2018-02-13T09:50:10.127Z,6.73
2018-02-13T09:52:38.553Z,10.13
2018-02-13T09:55:06.215Z,8.00
2018-02-13T09:57:33.901Z,6.90
2018-02-13T10:00:01.546Z,5.90
2018-02-13T10:02:29.183Z,5.23
2018-02-13T10:04:56.855Z,7.47
2018-02-13T10:07:24.494Z,4.47
2018-02-13T10:09:52.136Z,4.77
2018-02-13T10:12:19.828Z,4.83
2018-02-13T10:14:47.461Z,4.40
2018-02-13T10:17:15.886Z,6.60
2018-02-13T10:19:43.537Z,5.43
2018-02-13T10:22:11.179Z,6.30
2018-02-13T10:24:38.857Z,4.80
2018-02-13T10:27:06.503Z,4.40
2018-02-13T10:29:34.182Z,5.03
2018-02-13T10:32:01.820Z,5.10
2018-02-13T10:34:30.253Z,9.13
2018-02-13T10:36:57.910Z,6.10
2018-02-13T10:39:25.599Z,6.47
2018-02-13T10:41:53.264Z,5.13
2018-02-13T10:46:56.333Z,4.77
2018-02-13T10:49:23.968Z,4.53
2018-02-13T10:51:51.597Z,4.07
2018-02-13T10:54:20.018Z,6.60
2018-02-13T10:56:47.674Z,8.10
2018-02-13T10:59:15.334Z,6.40
2018-02-13T11:04:16.963Z,5.43
2018-02-13T11:06:45.387Z,4.60
2018-02-13T11:09:13.097Z,7.20
2018-02-13T11:11:40.790Z,4.37
2018-02-13T11:14:08.429Z,3.23
2018-02-13T11:16:36.078Z,2.17
2018-02-13T11:19:03.790Z,2.93
2018-02-13T11:21:31.435Z,3.37
2018-02-13T11:23:59.843Z,2.83
2018-02-13T11:26:27.492Z,2.97
2018-02-13T11:28:55.121Z,3.17
2018-02-13T11:31:23.765Z,3.20
2018-02-13T11:33:52.175Z,3.13
2018-02-13T11:36:19.832Z,3.80
2018-02-13T11:38:47.489Z,3.33
2018-02-13T11:41:15.171Z,2.43
2018-02-13T11:43:43.594Z,2.30
2018-02-13T11:46:11.250Z,2.03
2018-02-13T11:48:38.911Z,1.63
2018-02-13T11:51:06.573Z,3.20
2018-02-13T11:53:34.257Z,1.77
2018-02-13T11:56:01.897Z,2.47
2018-02-13T11:58:30.472Z,2.43
2018-02-13T12:00:58.132Z,2.27
2018-02-13T12:03:25.761Z,1.90
2018-02-13T12:05:53.426Z,5.20
2018-02-13T12:08:21.829Z,2.30
2018-02-13T12:10:49.493Z,2.27
2018-02-13T12:13:17.125Z,2.20
2018-02-13T12:15:45.573Z,4.20
2018-02-13T12:18:13.243Z,3.50
2018-02-13T12:20:40.864Z,2.30
2018-02-13T12:23:08.522Z,2.40
2018-02-13T12:25:42.157Z,2.07
2018-02-13T12:28:09.831Z,2.83
2018-02-13T12:30:37.465Z,2.40
2018-02-13T12:33:05.109Z,2.13
2018-02-13T12:35:32.767Z,2.07
2018-02-13T12:38:00.405Z,2.40
2018-02-13T12:40:28.826Z,2.57
2018-02-13T12:42:56.520Z,2.70
2018-02-13T12:45:24.185Z,2.70
2018-02-13T12:47:51.831Z,2.97
2018-02-13T12:50:19.472Z,2.87
2018-02-13T12:52:47.128Z,2.47
2018-02-13T12:55:14.785Z,3.17
2018-02-13T12:57:42.423Z,2.93
2018-02-13T13:00:11.798Z,3.47
2018-02-13T13:02:39.472Z,3.60
2018-02-13T13:05:07.132Z,3.80
2018-02-13T13:07:34.767Z,2.83
2018-02-13T13:10:02.444Z,2.70
2018-02-13T13:12:30.094Z,2.13
2018-02-13T13:14:57.762Z,3.00
2018-02-13T13:17:25.387Z,3.00
2018-02-13T13:19:53.034Z,3.70
2018-02-13T13:22:20.699Z,3.60
2018-02-13T13:24:48.289Z,3.80
2018-02-13T13:27:15.868Z,3.73
2018-02-13T13:29:43.435Z,2.73
2018-02-13T13:32:11.026Z,3.60
2018-02-13T13:34:38.607Z,3.93
2018-02-13T13:37:06.195Z,3.63
2018-02-13T13:39:33.818Z,3.13
2018-02-13T13:42:02.130Z,2.90
2018-02-13T13:44:29.705Z,4.07
2018-02-13T13:46:57.270Z,3.30
2018-02-13T13:49:24.856Z,3.63
2018-02-13T13:51:52.409Z,4.50
2018-02-13T13:54:19.972Z,3.73
2018-02-13T13:56:47.546Z,3.90
2018-02-13T13:59:15.876Z,4.07
2018-02-13T14:01:43.422Z,3.70
2018-02-13T14:04:11.003Z,3.90
2018-02-13T14:06:38.580Z,4.63
2018-02-13T14:09:06.145Z,4.60
2018-02-13T14:11:33.744Z,3.97
2018-02-13T14:14:01.327Z,3.80
2018-02-13T14:16:28.906Z,3.47
2018-02-13T14:18:58.141Z,3.20
2018-02-13T14:21:26.465Z,3.70
2018-02-13T14:23:54.030Z,3.77
2018-02-13T14:26:21.621Z,3.80
2018-02-13T14:28:49.186Z,3.50
2018-02-13T14:31:16.748Z,3.40
2018-02-13T14:33:45.149Z,3.50
2018-02-13T14:36:12.700Z,5.00
2018-02-13T14:38:41.042Z,4.67
2018-02-13T14:41:08.638Z,4.53
2018-02-13T14:43:36.944Z,4.50
2018-02-13T14:46:05.564Z,4.30
2018-02-13T14:48:33.105Z,4.10
2018-02-13T14:51:00.657Z,3.90
2018-02-13T14:53:28.273Z,5.03
2018-02-13T14:55:55.828Z,4.43
2018-02-13T14:58:23.411Z,4.90
2018-02-13T15:00:50.977Z,3.87
2018-02-13T15:03:18.537Z,4.33
2018-02-13T15:05:46.145Z,4.80
2018-02-13T15:08:13.730Z,4.57
2018-02-13T15:10:42.109Z,5.13
2018-02-13T15:13:10.441Z,4.83
2018-02-13T15:15:38.032Z,3.73
2018-02-13T15:21:07.235Z,5.00
2018-02-13T15:23:34.789Z,4.40
2018-02-13T15:26:02.367Z,4.40
2018-02-13T15:28:29.945Z,4.07
2018-02-13T15:30:58.315Z,5.43
2018-02-13T15:33:25.877Z,3.80
2018-02-13T15:35:53.470Z,3.93
2018-02-13T15:38:21.079Z,3.60
2018-02-13T15:40:48.649Z,3.97
2018-02-13T15:43:16.219Z,4.00
2018-02-13T15:45:44.611Z,5.23
2018-02-13T15:48:12.175Z,3.90
2018-02-13T15:50:40.495Z,4.10
2018-02-13T15:53:08.067Z,4.10
2018-02-13T15:55:35.650Z,4.20
2018-02-13T15:58:03.222Z,5.10
2018-02-13T16:00:31.564Z,4.30
2018-02-13T16:02:59.118Z,4.40
2018-02-13T16:05:26.685Z,4.87
2018-02-13T16:07:54.262Z,4.30
2018-02-13T16:10:21.820Z,4.00
2018-02-13T16:12:49.398Z,4.20
2018-02-13T16:15:17.749Z,5.77
2018-02-13T16:17:45.310Z,4.20
2018-02-13T16:20:12.916Z,4.23
2018-02-13T16:22:40.478Z,4.40
2018-02-13T16:25:08.064Z,4.90
2018-02-13T16:27:35.626Z,4.30
2018-02-13T16:30:03.203Z,4.27
2018-02-13T16:32:30.764Z,4.37
2018-02-13T16:34:58.345Z,3.37
2018-02-13T16:37:25.928Z,4.77
2018-02-13T16:39:53.480Z,4.70
2018-02-13T16:42:21.842Z,4.97
2018-02-13T16:44:49.424Z,4.43
2018-02-13T16:47:17.786Z,3.90
2018-02-13T16:49:46.134Z,4.50
2018-02-13T16:52:13.723Z,4.23
2018-02-13T16:54:42.079Z,3.90
2018-02-13T16:57:09.629Z,4.47
2018-02-13T16:59:37.186Z,4.43
2018-02-13T17:02:04.771Z,13.20
2018-02-13T17:04:32.330Z,7.00
2018-02-13T17:06:59.942Z,4.93
2018-02-13T17:09:27.504Z,5.60
2018-02-13T17:11:55.115Z,7.00
2018-02-13T17:14:23.483Z,7.40
2018-02-13T17:16:51.049Z,7.37
2018-02-13T17:19:18.633Z,7.80
2018-02-13T17:21:46.971Z,6.80
2018-02-13T17:24:14.607Z,11.30
2018-02-13T17:26:42.193Z,25.70
2018-02-13T17:29:09.806Z,13.50
2018-02-13T17:31:37.414Z,11.93
2018-02-13T17:34:04.965Z,7.67
2018-02-13T17:36:32.533Z,6.50
2018-02-13T17:39:00.127Z,6.17
2018-02-13T17:41:28.476Z,7.90
2018-02-13T17:43:56.030Z,8.77
2018-02-13T17:46:23.600Z,8.90
2018-02-13T17:48:51.219Z,7.23
2018-02-13T17:51:18.787Z,6.67
2018-02-13T17:53:46.344Z,6.40
2018-02-13T17:56:13.938Z,6.00
2018-02-13T17:58:41.633Z,6.40
2018-02-13T18:01:09.974Z,7.10
2018-02-13T18:03:37.604Z,7.67
2018-02-13T18:06:05.327Z,6.85
2018-02-13T18:08:33.655Z,7.37
2018-02-13T18:11:01.233Z,7.00
2018-02-13T18:13:28.828Z,6.28
2018-02-13T18:15:56.429Z,5.67
2018-02-13T18:18:24.940Z,6.77
2018-02-13T18:20:52.527Z,5.47
2018-02-13T18:23:20.853Z,6.47
2018-02-13T18:25:48.457Z,7.60
2018-02-13T18:28:16.812Z,7.35
2018-02-13T18:30:44.378Z,6.75
2018-02-13T18:33:11.965Z,7.35
2018-02-13T18:35:39.582Z,8.50
2018-02-13T18:38:07.187Z,7.07
2018-02-13T18:40:35.532Z,6.62
2018-02-13T18:43:03.098Z,6.00
2018-02-13T18:45:30.677Z,6.77
2018-02-13T18:47:59.002Z,6.45
2018-02-13T18:50:26.581Z,6.30
2018-02-13T18:55:21.849Z,12.15
2018-02-13T18:57:50.177Z,18.37
2018-02-13T19:00:17.751Z,10.45
2018-02-13T19:02:45.334Z,7.68
2018-02-13T19:05:13.759Z,7.10
2018-02-13T19:07:41.341Z,6.40
2018-02-13T19:10:08.903Z,7.20
2018-02-13T19:12:36.500Z,7.25
2018-02-13T19:15:04.844Z,7.47
2018-02-13T19:17:32.446Z,9.00
2018-02-13T20:41:57.148Z,7.10
2018-02-13T20:44:25.568Z,8.98
2018-02-13T20:46:53.144Z,7.82
2018-02-13T20:49:20.716Z,7.40
2018-02-13T20:51:48.299Z,7.90
2018-02-13T20:54:15.859Z,8.80
2018-02-13T20:56:43.471Z,8.45
2018-02-13T20:59:11.078Z,7.68
2018-02-13T21:01:38.641Z,9.48
2018-02-13T21:04:06.255Z,7.75
2018-02-13T21:06:33.826Z,11.07
2018-02-13T21:09:01.386Z,8.40
2018-02-13T21:11:28.973Z,8.43
2018-02-13T21:13:56.558Z,9.25
2018-02-13T21:16:24.135Z,8.65
2018-02-13T21:18:52.485Z,7.82
2018-02-13T21:21:20.054Z,8.27
2018-02-13T21:23:48.422Z,7.30
2018-02-13T21:26:15.990Z,8.68
2018-02-13T21:28:43.581Z,8.00
2018-02-13T21:31:11.908Z,7.70
2018-02-13T21:33:39.489Z,7.43
2018-02-13T21:36:07.072Z,8.63
2018-02-13T21:38:35.441Z,10.13
2018-02-13T21:41:03.057Z,9.63
2018-02-13T21:43:30.642Z,9.85
2018-02-13T21:45:58.280Z,10.23
2018-02-13T21:48:25.858Z,10.10
2018-02-13T21:50:53.463Z,10.52
2018-02-13T21:53:21.051Z,10.32
2018-02-13T21:55:48.649Z,9.77
2018-02-13T21:58:16.253Z,9.82
2018-02-13T22:00:43.828Z,10.20
2018-02-13T22:03:11.404Z,11.50
2018-02-13T22:05:39.011Z,9.77
2018-02-13T22:08:07.354Z,9.50
2018-02-13T22:10:34.923Z,10.15
2018-02-13T22:13:02.559Z,10.50
2018-02-13T22:15:30.131Z,9.80
2018-02-13T22:17:57.728Z,9.80
2018-02-13T22:20:26.066Z,10.00
2018-02-13T22:22:53.666Z,10.70
2018-02-13T22:25:22.482Z,11.30
2018-02-13T22:27:50.090Z,11.32
2018-02-13T22:30:17.652Z,10.55
2018-02-13T22:32:45.204Z,10.05
2018-02-13T22:35:12.794Z,10.60
2018-02-13T22:37:41.135Z,10.25
2018-02-13T22:40:08.772Z,10.93
2018-02-13T22:42:36.360Z,11.07
2018-02-13T22:45:03.957Z,10.55
2018-02-13T22:47:32.297Z,11.12
2018-02-13T22:49:59.891Z,10.25
2018-02-13T22:52:28.258Z,12.70
2018-02-13T22:54:55.821Z,10.70
2018-02-13T22:57:23.400Z,11.63
2018-02-13T22:59:51.743Z,11.73
2018-02-13T23:02:19.347Z,11.20
2018-02-13T23:04:46.942Z,10.93
2018-02-13T23:07:15.286Z,10.90
2018-02-13T23:09:42.923Z,11.05
2018-02-13T23:12:11.291Z,12.30
2018-02-13T23:14:38.858Z,11.98
2018-02-13T23:17:06.482Z,12.68
2018-02-13T23:19:34.055Z,11.68
2018-02-13T23:22:01.703Z,11.52
2018-02-13T23:24:29.308Z,11.88
2018-02-13T23:26:56.887Z,12.25
2018-02-13T23:29:24.450Z,11.45
2018-02-13T23:31:52.060Z,11.80
2018-02-13T23:34:19.639Z,11.98
2018-02-13T23:36:47.236Z,10.70
2018-02-13T23:39:14.915Z,12.00
2018-02-13T23:41:42.518Z,12.07
2018-02-13T23:44:10.093Z,11.25
2018-02-13T23:46:38.444Z,11.75
2018-02-13T23:49:06.045Z,11.40
2018-02-13T23:51:34.385Z,11.48
2018-02-13T23:54:01.989Z,11.80
2018-02-13T23:56:29.561Z,11.90
2018-02-13T23:58:57.137Z,12.23
